createdAt,value
2017-03-20T16:25:36.546Z,48.80
2017-03-20T16:26:35.847Z,49.20
2017-03-20T16:27:35.135Z,47.90
2017-03-20T16:28:34.401Z,49.30
2017-03-20T16:29:34.443Z,49.00
2017-03-20T16:30:33.692Z,48.90
2017-03-20T16:31:32.974Z,51.20
2017-03-20T16:32:32.281Z,48.90
2017-03-20T16:33:31.602Z,50.30
2017-03-20T16:34:30.931Z,50.10
2017-03-20T16:35:30.217Z,49.60
2017-03-20T16:36:29.524Z,50.30
2017-03-20T16:37:28.785Z,50.50
2017-03-20T16:38:28.113Z,51.80
2017-03-20T16:39:27.398Z,50.30
2017-03-20T16:40:26.700Z,51.80
2017-03-20T16:41:25.958Z,51.80
2017-03-20T16:42:25.235Z,51.00
2017-03-20T16:43:24.614Z,51.80
2017-03-20T16:44:23.950Z,52.40
2017-03-20T16:45:23.280Z,51.80
2017-03-20T16:46:22.547Z,51.70
2017-03-20T16:47:21.821Z,51.70
2017-03-20T16:48:21.066Z,51.60
2017-03-20T16:49:20.333Z,51.80
2017-03-20T16:50:19.892Z,52.00
2017-03-20T16:51:19.142Z,52.40
2017-03-20T16:52:18.398Z,51.60
2017-03-20T16:53:17.682Z,52.80
2017-03-20T16:54:16.949Z,52.80
2017-03-20T16:55:16.222Z,53.20
2017-03-20T16:56:15.531Z,54.30
2017-03-20T16:57:14.809Z,52.90
2017-03-20T16:58:14.127Z,54.50
2017-03-20T16:59:13.389Z,53.40
2017-03-20T17:00:12.714Z,52.90
2017-03-20T17:01:12.028Z,54.70
2017-03-20T17:02:11.332Z,54.80
2017-03-20T17:03:10.613Z,54.40
2017-03-20T17:04:09.915Z,54.50
2017-03-20T17:05:09.201Z,54.60
2017-03-20T17:06:08.449Z,55.20
2017-03-20T17:07:07.721Z,54.20
2017-03-20T17:08:07.009Z,54.80
2017-03-20T17:09:06.452Z,55.50
2017-03-20T17:10:05.797Z,55.40
2017-03-20T17:11:05.057Z,55.40
2017-03-20T17:12:04.350Z,55.90
2017-03-20T17:13:03.634Z,55.90
2017-03-20T17:14:02.907Z,56.00
2017-03-20T17:15:02.153Z,56.20
2017-03-20T17:16:01.417Z,55.70
2017-03-20T17:17:00.665Z,56.10
2017-03-20T17:17:59.979Z,55.90
2017-03-20T17:18:59.258Z,56.60
2017-03-20T17:19:58.707Z,58.70
2017-03-20T17:20:57.984Z,57.50
2017-03-20T17:21:57.262Z,57.60
2017-03-20T17:22:56.514Z,57.50
2017-03-20T17:23:55.891Z,57.70
2017-03-20T17:24:55.240Z,57.70
2017-03-20T17:25:54.521Z,58.00
2017-03-20T17:26:53.805Z,58.30
2017-03-20T17:27:53.064Z,58.00
2017-03-20T17:28:53.128Z,58.30
2017-03-20T17:29:53.649Z,58.30
2017-03-20T17:30:52.911Z,58.60
2017-03-20T17:31:52.203Z,58.40
2017-03-20T17:32:51.534Z,59.10
2017-03-20T17:33:51.363Z,59.40
2017-03-20T17:34:50.656Z,59.70
2017-03-20T17:35:50.701Z,60.20
2017-03-20T17:36:50.032Z,60.40
2017-03-20T17:37:49.349Z,60.20
2017-03-20T17:38:49.404Z,60.90
2017-03-20T17:39:48.699Z,61.40
2017-03-20T17:40:48.402Z,61.70
2017-03-20T17:41:47.729Z,61.60
2017-03-20T17:42:47.025Z,61.50
2017-03-20T17:43:46.895Z,61.90
2017-03-20T17:44:46.165Z,62.00
2017-03-20T17:45:45.442Z,63.10
2017-03-20T17:46:44.735Z,62.70
2017-03-20T17:47:44.463Z,62.10
2017-03-20T17:48:43.737Z,62.50
2017-03-20T17:49:43.029Z,62.50
2017-03-20T17:50:42.309Z,62.40
2017-03-20T17:51:42.065Z,62.70
2017-03-20T17:52:41.430Z,62.80
2017-03-20T17:53:40.773Z,62.90
2017-03-20T17:54:40.227Z,62.70
2017-03-20T17:55:39.506Z,62.80
2017-03-20T17:56:38.793Z,63.40
2017-03-20T17:57:38.470Z,63.30
2017-03-20T17:58:37.753Z,63.30
2017-03-20T17:59:37.091Z,64.00
2017-03-20T18:00:36.407Z,63.80
2017-03-20T18:01:35.714Z,63.90
2017-03-20T18:02:35.745Z,64.30
2017-03-20T18:03:35.045Z,64.30
2017-03-20T18:04:34.313Z,64.40
2017-03-20T18:05:33.643Z,64.60
2017-03-20T18:06:33.661Z,64.60
2017-03-20T18:07:32.945Z,64.90
2017-03-20T18:08:32.192Z,65.10
2017-03-20T18:09:31.493Z,65.20
2017-03-20T18:10:30.809Z,65.20
2017-03-20T18:11:30.141Z,65.40
2017-03-20T18:12:30.198Z,65.50
2017-03-20T18:13:29.513Z,65.90
2017-03-20T18:14:28.841Z,65.60
2017-03-20T18:15:28.173Z,65.70
2017-03-20T18:16:27.498Z,65.90
2017-03-20T18:17:26.812Z,65.90
2017-03-20T18:18:26.083Z,65.90
2017-03-20T18:19:25.373Z,66.00
2017-03-20T18:20:24.701Z,66.60
2017-03-20T18:21:24.045Z,66.60
2017-03-20T18:22:23.371Z,66.50
2017-03-20T18:23:23.105Z,66.40
2017-03-20T18:24:22.397Z,66.40
2017-03-20T18:25:21.769Z,66.30
2017-03-20T18:26:21.787Z,66.60
2017-03-20T18:27:21.094Z,66.20
2017-03-20T18:28:20.426Z,66.60
2017-03-20T18:29:19.730Z,66.30
2017-03-20T18:30:19.014Z,66.10
2017-03-20T18:31:18.360Z,65.80
2017-03-20T18:32:17.651Z,65.70
2017-03-20T18:33:16.937Z,65.80
2017-03-20T18:34:16.210Z,65.90
2017-03-20T18:35:15.490Z,65.50
2017-03-20T18:36:15.514Z,65.30
2017-03-20T18:37:14.817Z,65.30
2017-03-20T18:38:14.149Z,65.60
2017-03-20T18:39:13.417Z,65.30
2017-03-20T18:40:12.750Z,65.40
2017-03-20T18:41:12.058Z,65.50
2017-03-20T18:42:11.890Z,65.80
2017-03-20T18:43:11.186Z,65.90
2017-03-20T18:44:10.453Z,65.90
2017-03-20T18:45:10.299Z,66.70
2017-03-20T18:46:09.606Z,66.70
2017-03-20T18:47:08.925Z,67.10
2017-03-20T18:48:08.598Z,67.40
2017-03-20T18:49:07.854Z,67.10
2017-03-20T18:50:07.282Z,67.80
2017-03-20T18:51:06.746Z,67.40
2017-03-20T18:52:06.105Z,67.60
2017-03-20T18:53:05.365Z,67.80
2017-03-20T18:54:04.718Z,67.60
2017-03-20T18:55:04.822Z,67.10
2017-03-20T18:56:04.132Z,66.80
2017-03-20T18:57:03.448Z,66.60
2017-03-20T18:58:02.749Z,67.00
2017-03-20T18:59:02.304Z,66.90
2017-03-20T19:00:02.260Z,66.90
2017-03-20T19:01:01.606Z,67.00
2017-03-20T19:02:01.009Z,67.20
2017-03-20T19:03:00.298Z,67.60
2017-03-20T19:03:59.643Z,67.60
2017-03-20T19:04:58.962Z,67.60
2017-03-20T19:05:58.312Z,67.50
2017-03-20T19:06:59.145Z,67.50
2017-03-20T19:07:58.543Z,68.00
2017-03-20T19:08:57.861Z,67.50
2017-03-20T19:09:57.204Z,67.50
2017-03-20T19:10:56.526Z,67.50
2017-03-20T19:11:55.842Z,67.50
2017-03-20T19:12:55.150Z,67.60
2017-03-20T19:13:54.473Z,68.30
2017-03-20T19:14:54.542Z,69.40
2017-03-20T19:15:53.888Z,69.50
2017-03-20T19:16:53.247Z,69.60
2017-03-20T19:17:52.560Z,69.70
2017-03-20T19:18:51.813Z,69.70
2017-03-20T19:19:51.102Z,70.30
2017-03-20T19:20:50.420Z,70.50
2017-03-20T19:21:50.038Z,70.60
2017-03-20T19:22:49.366Z,70.50
2017-03-20T19:23:48.637Z,70.70
2017-03-20T19:24:48.093Z,70.70
2017-03-20T19:25:47.589Z,71.00
2017-03-20T19:26:47.161Z,70.90
2017-03-20T19:27:46.429Z,70.90
2017-03-20T19:28:46.403Z,71.40
2017-03-20T19:29:45.655Z,71.70
2017-03-20T19:30:45.041Z,72.00
2017-03-20T19:31:44.453Z,72.20
2017-03-20T19:32:44.302Z,72.10
2017-03-20T19:33:43.736Z,71.90
2017-03-20T19:34:42.994Z,72.10
2017-03-20T19:35:42.366Z,71.90
2017-03-20T19:36:41.735Z,71.70
2017-03-20T19:37:41.807Z,71.50
2017-03-20T19:38:41.417Z,71.30
2017-03-20T19:39:40.714Z,71.10
2017-03-20T19:40:40.101Z,71.30
2017-03-20T19:41:42.161Z,71.00
2017-03-20T19:42:42.222Z,71.00
2017-03-20T19:43:41.593Z,70.90
2017-03-20T19:44:40.906Z,70.80
2017-03-20T19:45:40.177Z,70.70
2017-03-20T19:46:39.514Z,71.30
2017-03-20T19:47:38.864Z,70.60
2017-03-20T19:48:38.279Z,70.40
2017-03-20T19:49:37.713Z,70.40
2017-03-20T19:50:37.143Z,70.40
2017-03-20T19:51:36.437Z,71.20
2017-03-20T19:52:35.763Z,70.80
2017-03-20T19:53:35.097Z,70.70
2017-03-20T19:54:34.461Z,70.70
2017-03-20T19:55:34.335Z,70.80
2017-03-20T19:56:34.093Z,70.70
2017-03-20T19:57:33.979Z,70.90
2017-03-20T19:58:33.264Z,71.40
2017-03-20T19:59:33.329Z,71.40
2017-03-20T20:00:32.678Z,71.40
2017-03-20T20:01:31.960Z,71.50
2017-03-20T20:02:31.259Z,71.60
2017-03-20T20:03:30.573Z,71.70
2017-03-20T20:04:30.589Z,71.70
2017-03-20T20:05:29.918Z,72.30
2017-03-20T20:06:29.218Z,72.10
2017-03-20T20:07:28.519Z,72.20
2017-03-20T20:08:28.235Z,72.10
2017-03-20T20:09:27.782Z,72.00
2017-03-20T20:10:27.143Z,72.30
2017-03-20T20:11:26.414Z,72.40
2017-03-20T20:12:25.757Z,72.00
2017-03-20T20:13:25.045Z,72.10
2017-03-20T20:14:24.399Z,71.90
2017-03-20T20:15:23.722Z,71.80
2017-03-20T20:16:23.007Z,71.90
2017-03-20T20:17:22.338Z,71.80
2017-03-20T20:18:21.686Z,71.90
2017-03-20T20:19:21.139Z,71.70
2017-03-20T20:20:21.001Z,71.60
2017-03-20T20:21:20.393Z,71.70
2017-03-20T20:22:19.774Z,71.50
2017-03-20T20:23:19.080Z,71.70
2017-03-20T20:24:18.366Z,71.60
2017-03-20T20:25:17.646Z,71.70
2017-03-20T20:26:16.958Z,71.80
2017-03-20T20:27:16.342Z,71.80
2017-03-20T20:28:15.649Z,72.00
2017-03-20T20:29:15.077Z,72.30
2017-03-20T20:30:14.433Z,72.10
2017-03-20T20:31:13.826Z,72.40
2017-03-20T20:32:13.170Z,72.40
2017-03-20T20:33:12.534Z,72.40
2017-03-20T20:34:11.913Z,72.60
2017-03-20T20:35:11.214Z,72.90
2017-03-20T20:36:10.549Z,73.00
2017-03-20T20:37:09.845Z,73.70
2017-03-20T20:38:09.140Z,73.60
2017-03-20T20:39:08.402Z,72.90
2017-03-20T20:40:09.624Z,73.10
2017-03-20T20:41:08.947Z,73.60
2017-03-20T20:42:08.306Z,73.40
2017-03-20T20:43:07.577Z,73.60
2017-03-20T20:44:06.867Z,73.60
2017-03-20T20:45:07.218Z,73.80
2017-03-20T20:46:06.815Z,74.00
2017-03-20T20:47:06.135Z,73.90
2017-03-20T20:48:05.786Z,73.80
2017-03-20T20:49:05.077Z,73.50
2017-03-20T20:50:04.453Z,73.20
2017-03-20T20:51:03.726Z,73.10
2017-03-20T20:52:03.013Z,73.20
2017-03-20T20:53:04.338Z,73.50
2017-03-20T20:54:03.829Z,73.40
2017-03-20T20:55:03.117Z,73.40
2017-03-20T20:56:03.168Z,73.50
2017-03-20T20:57:02.520Z,73.60
2017-03-20T20:58:01.856Z,73.60
2017-03-20T20:59:01.817Z,74.50
2017-03-20T21:00:01.474Z,74.40
2017-03-20T21:01:00.748Z,74.70
2017-03-20T21:02:00.188Z,74.90
2017-03-20T21:02:59.445Z,75.40
2017-03-20T21:03:58.900Z,75.40
2017-03-20T21:04:58.182Z,75.80
2017-03-20T21:05:57.502Z,75.80
2017-03-20T21:06:57.063Z,76.20
2017-03-20T21:07:56.337Z,76.40
2017-03-20T21:08:55.675Z,76.20
2017-03-20T21:09:54.946Z,76.30
2017-03-20T21:10:54.467Z,76.20
2017-03-20T21:11:53.858Z,76.30
2017-03-20T21:12:53.135Z,76.60
2017-03-20T21:13:52.452Z,76.70
2017-03-20T21:14:51.755Z,77.10
2017-03-20T21:15:51.142Z,77.10
2017-03-20T21:16:50.556Z,77.10
2017-03-20T21:17:50.414Z,77.10
2017-03-20T21:18:49.786Z,77.00
2017-03-20T21:19:49.044Z,77.00
2017-03-20T21:20:48.430Z,77.00
2017-03-20T21:21:47.698Z,77.00
2017-03-20T21:22:47.701Z,76.90
2017-03-20T21:23:47.028Z,77.00
2017-03-20T21:24:46.355Z,77.20
2017-03-20T21:25:45.652Z,77.50
2017-03-20T21:26:44.950Z,77.90
2017-03-20T21:27:44.495Z,78.00
2017-03-20T21:28:44.202Z,78.80
2017-03-20T21:29:43.478Z,78.20
2017-03-20T21:30:42.761Z,78.40
2017-03-20T21:31:42.071Z,78.50
2017-03-20T21:32:42.118Z,79.10
2017-03-20T21:33:41.441Z,78.30
2017-03-20T21:34:40.746Z,78.10
2017-03-20T21:35:40.077Z,78.00
2017-03-20T21:36:39.386Z,78.10
2017-03-20T21:37:38.728Z,78.20
2017-03-20T21:38:38.014Z,77.90
2017-03-20T21:39:37.605Z,77.70
2017-03-20T21:40:36.886Z,77.60
2017-03-20T21:41:36.250Z,77.10
2017-03-20T21:42:35.640Z,77.10
2017-03-20T21:43:34.936Z,77.10
2017-03-20T21:44:34.233Z,77.20
2017-03-20T21:45:33.875Z,77.20
2017-03-20T21:46:33.935Z,77.20
2017-03-20T21:47:33.221Z,77.00
2017-03-20T21:48:32.502Z,77.20
2017-03-20T21:49:31.791Z,76.80
2017-03-20T21:50:31.067Z,76.70
2017-03-20T21:51:30.385Z,76.60
2017-03-20T21:52:29.661Z,76.60
2017-03-20T21:53:28.985Z,76.70
2017-03-20T21:54:28.266Z,76.30
2017-03-20T21:55:27.692Z,76.20
2017-03-20T21:56:27.021Z,76.10
2017-03-20T21:57:26.339Z,76.10
2017-03-20T21:58:25.628Z,75.90
2017-03-20T21:59:24.924Z,75.80
2017-03-20T22:00:24.258Z,75.90
2017-03-20T22:01:23.510Z,76.00
2017-03-20T22:02:23.241Z,76.00
2017-03-20T22:03:22.561Z,76.00
2017-03-20T22:04:21.909Z,76.10
2017-03-20T22:05:21.199Z,76.40
2017-03-20T22:06:20.572Z,76.60
2017-03-20T22:07:19.844Z,76.70
2017-03-20T22:08:19.262Z,76.60
2017-03-20T22:09:18.514Z,76.60
2017-03-20T22:10:17.845Z,76.80
2017-03-20T22:11:17.161Z,76.60
2017-03-20T22:12:16.425Z,76.30
2017-03-20T22:13:15.679Z,76.20
2017-03-20T22:14:15.041Z,75.90
2017-03-20T22:15:18.801Z,75.70
2017-03-20T22:16:18.084Z,75.80
2017-03-20T22:17:17.485Z,75.40
2017-03-20T22:18:16.893Z,75.80
2017-03-20T22:19:16.358Z,75.00
2017-03-20T22:20:16.004Z,74.70
2017-03-20T22:21:15.313Z,74.80
2017-03-20T22:22:14.605Z,74.70
2017-03-20T22:23:13.949Z,74.40
2017-03-20T22:24:13.557Z,74.30
2017-03-20T22:25:12.925Z,74.40
2017-03-20T22:26:12.222Z,73.90
2017-03-20T22:27:11.497Z,74.10
2017-03-20T22:28:10.754Z,74.20
2017-03-20T22:29:10.192Z,74.50
2017-03-20T22:30:09.505Z,74.80
2017-03-20T22:31:09.512Z,74.80
2017-03-20T22:32:08.818Z,75.10
2017-03-20T22:33:08.317Z,75.40
2017-03-20T22:34:08.101Z,76.40
2017-03-20T22:35:08.110Z,76.70
2017-03-20T22:36:07.422Z,76.90
2017-03-20T22:37:07.160Z,77.20
2017-03-20T22:38:06.450Z,77.50
2017-03-20T22:39:05.969Z,78.20
2017-03-20T22:40:05.393Z,78.20
2017-03-20T22:41:04.680Z,78.30
2017-03-20T22:42:07.445Z,79.00
2017-03-20T22:43:11.767Z,77.90
2017-03-20T22:44:22.334Z,79.00
2017-03-20T22:45:33.679Z,80.00
2017-03-20T22:46:44.554Z,80.40
2017-03-20T22:47:55.086Z,80.30
2017-03-20T22:49:06.373Z,80.30
2017-03-20T22:50:17.024Z,80.00
2017-03-20T22:51:27.450Z,80.10
2017-03-20T22:52:37.890Z,80.50
2017-03-20T22:53:48.265Z,81.10
2017-03-20T22:54:46.374Z,81.50
2017-03-20T22:55:44.488Z,82.00
2017-03-20T22:56:48.197Z,82.20
2017-03-20T22:57:47.550Z,82.30
2017-03-20T22:58:46.984Z,82.40
2017-03-20T22:59:46.326Z,82.80
2017-03-20T23:00:45.681Z,83.50
2017-03-20T23:01:44.994Z,83.80
2017-03-20T23:02:45.110Z,84.60
2017-03-20T23:03:44.442Z,84.50
2017-03-20T23:04:43.756Z,84.80
2017-03-20T23:05:43.108Z,84.60
2017-03-20T23:06:42.484Z,85.10
2017-03-20T23:07:41.782Z,84.60
2017-03-20T23:08:41.121Z,84.90
2017-03-20T23:09:40.724Z,84.60
2017-03-20T23:10:48.699Z,84.60
2017-03-20T23:11:53.501Z,84.60
2017-03-20T23:12:56.935Z,84.50
2017-03-20T23:13:56.242Z,84.50
2017-03-20T23:16:02.528Z,84.50
2017-03-20T23:17:04.585Z,86.20
2017-03-20T23:18:03.925Z,86.40
2017-03-20T23:19:03.278Z,86.90
2017-03-20T23:20:02.549Z,87.00
2017-03-20T23:21:01.882Z,87.10
2017-03-20T23:22:01.247Z,87.20
2017-03-20T23:23:00.607Z,87.60
2017-03-20T23:24:01.685Z,87.80
2017-03-20T23:25:01.234Z,87.90
2017-03-20T23:26:04.639Z,88.20
2017-03-20T23:27:04.483Z,88.10
2017-03-20T23:28:03.876Z,88.50
2017-03-20T23:29:03.785Z,88.80
2017-03-20T23:30:03.185Z,89.00
2017-03-20T23:31:02.492Z,89.50
2017-03-20T23:32:03.665Z,90.00
2017-03-20T23:33:03.542Z,90.10
2017-03-20T23:34:02.809Z,90.20
2017-03-20T23:35:02.093Z,90.20
2017-03-20T23:36:02.532Z,90.30
2017-03-20T23:37:02.681Z,90.30
2017-03-20T23:38:02.084Z,90.30
2017-03-20T23:39:01.470Z,90.30
2017-03-20T23:40:03.248Z,90.20
2017-03-20T23:41:04.774Z,90.10
2017-03-20T23:42:05.230Z,90.20
2017-03-20T23:43:04.971Z,90.10
2017-03-20T23:44:04.301Z,90.10
2017-03-20T23:45:03.609Z,90.00
2017-03-20T23:46:03.642Z,90.10
2017-03-20T23:47:07.321Z,90.10
2017-03-20T23:48:06.617Z,90.10
2017-03-20T23:49:05.893Z,90.20
2017-03-20T23:50:05.186Z,90.00
2017-03-20T23:51:06.117Z,90.00
2017-03-20T23:52:06.328Z,89.90
2017-03-20T23:53:08.301Z,89.20
2017-03-20T23:54:11.087Z,88.40
2017-03-20T23:55:10.780Z,87.50
2017-03-20T23:56:10.157Z,87.00
2017-03-20T23:57:09.509Z,86.60
2017-03-20T23:58:09.367Z,86.10
2017-03-20T23:59:08.658Z,85.70
